Terminal Aerodrome Forecast
Issued by NWS Corpus Christi, TX

Home | Current Version | Previous Version | Text Only | Print | Product List | Glossary On
Versions: 1 2 3 4 5 6 7 8 9 10 11 12 13 14 15 16 17 18 19 20 21 22
000
FTUS44 KCRP 250533 CCA
TAFVCT
TAF COR
KVCT 250533Z 2506/2606 19012G20KT P6SM OVC012
     FM250900 20004KT 3SM BR SCT006 OVC012 WS020/19040KT
     FM251200 25005KT 1SM BR BKN005 OVC010
     FM251400 34009KT P6SM BKN020
     FM251800 35008KT P6SM SCT030
     FM252300 12006KT P6SM SKC=

USA.gov is the U.S. government's official web portal to all federal, state and local government web resources and services.